createdAt,value
2019-03-01T00:01:22.744Z,77.00
2019-03-01T00:02:54.972Z,76.70
2019-03-01T00:04:54.506Z,76.40
2019-03-01T00:06:37.113Z,76.50
2019-03-01T00:08:17.589Z,76.50
2019-03-01T00:10:07.431Z,76.40
2019-03-01T00:12:12.389Z,76.90
2019-03-01T00:14:07.528Z,76.60
2019-03-01T00:16:05.341Z,76.40
2019-03-01T00:18:15.505Z,77.20
2019-03-01T00:20:10.431Z,76.90
2019-03-01T00:22:16.958Z,77.20
2019-03-01T00:24:13.750Z,76.80
2019-03-01T00:26:06.273Z,76.60
2019-03-01T00:28:19.710Z,76.90
2019-03-01T00:30:44.960Z,76.50
2019-03-01T00:32:22.972Z,76.30
2019-03-01T00:34:23.855Z,76.00
2019-03-01T00:36:33.955Z,76.40
2019-03-01T00:39:12.272Z,76.00
2019-03-01T00:41:10.106Z,76.20
2019-03-01T00:43:03.382Z,75.90
2019-03-01T00:44:42.026Z,75.90
2019-03-01T00:46:14.353Z,75.80
2019-03-01T00:47:46.618Z,76.00
2019-03-01T00:49:18.926Z,75.60
2019-03-01T00:50:51.079Z,75.50
2019-03-01T00:52:23.399Z,76.00
2019-03-01T00:53:55.681Z,76.50
2019-03-01T00:55:27.787Z,76.00
2019-03-01T00:57:00.054Z,75.90
2019-03-01T00:58:32.306Z,75.70
2019-03-01T01:00:06.545Z,75.70
2019-03-01T01:01:38.677Z,75.40
2019-03-01T01:03:10.895Z,75.70
2019-03-01T01:04:43.133Z,74.90
2019-03-01T01:06:15.461Z,75.20
2019-03-01T01:07:47.721Z,75.60
2019-03-01T01:09:19.883Z,75.80
2019-03-01T01:10:52.051Z,75.20
2019-03-01T01:12:24.292Z,75.20
2019-03-01T01:13:56.601Z,75.60
2019-03-01T01:15:28.838Z,75.20
2019-03-01T01:17:01.091Z,75.20
2019-03-01T01:18:33.317Z,75.40
2019-03-01T01:20:06.192Z,75.30
2019-03-01T01:21:38.329Z,75.20
2019-03-01T01:23:10.617Z,75.90
2019-03-01T01:24:42.845Z,75.30
2019-03-01T01:26:15.171Z,76.60
2019-03-01T01:27:47.468Z,75.40
2019-03-01T01:29:19.728Z,75.40
2019-03-01T01:30:51.998Z,75.70
2019-03-01T01:32:24.244Z,75.30
2019-03-01T01:33:56.512Z,75.30
2019-03-01T01:35:29.971Z,75.20
2019-03-01T01:37:02.109Z,75.10
2019-03-01T01:38:34.390Z,75.30
2019-03-01T01:40:07.180Z,75.10
2019-03-01T01:41:39.385Z,75.60
2019-03-01T01:43:11.709Z,75.10
2019-03-01T01:44:44.000Z,75.10
2019-03-01T01:46:16.119Z,75.50
2019-03-01T01:47:48.353Z,75.30
2019-03-01T01:49:20.604Z,75.20
2019-03-01T01:50:52.837Z,75.20
2019-03-01T01:52:25.116Z,75.50
2019-03-01T01:53:57.416Z,75.10
2019-03-01T01:55:29.689Z,75.30
2019-03-01T01:57:01.892Z,75.00
2019-03-01T01:58:34.147Z,74.90
2019-03-01T02:00:07.328Z,75.70
2019-03-01T02:01:39.469Z,75.60
2019-03-01T02:03:11.578Z,75.70
2019-03-01T02:04:43.878Z,76.20
2019-03-01T02:06:16.027Z,75.90
2019-03-01T02:07:48.317Z,75.90
2019-03-01T02:09:24.343Z,77.10
2019-03-01T02:10:56.613Z,76.00
2019-03-01T02:12:28.883Z,76.50
2019-03-01T02:14:01.181Z,76.30
2019-03-01T02:15:33.272Z,77.20
2019-03-01T02:17:05.594Z,77.10
2019-03-01T02:18:37.877Z,76.30
2019-03-01T02:20:10.141Z,76.70
2019-03-01T02:21:42.411Z,76.10
2019-03-01T02:23:14.729Z,77.00
2019-03-01T02:24:47.072Z,77.00
2019-03-01T02:26:19.185Z,76.80
2019-03-01T02:27:51.447Z,76.70
2019-03-01T02:29:23.732Z,76.40
2019-03-01T02:30:56.546Z,77.60
2019-03-01T02:32:48.695Z,77.20
2019-03-01T02:34:21.137Z,77.80
2019-03-01T02:35:53.445Z,77.30
2019-03-01T02:37:25.671Z,77.70
2019-03-01T02:38:57.902Z,77.60
2019-03-01T02:40:33.574Z,77.40
2019-03-01T02:42:05.836Z,77.40
2019-03-01T02:43:38.136Z,77.70
2019-03-01T02:45:13.012Z,77.60
2019-03-01T02:46:45.185Z,77.90
2019-03-01T02:48:17.508Z,78.30
2019-03-01T02:49:49.731Z,77.70
2019-03-01T02:51:21.993Z,77.60
2019-03-01T02:52:54.294Z,77.90
2019-03-01T02:54:26.592Z,78.40
2019-03-01T02:55:58.678Z,77.80
2019-03-01T02:57:31.001Z,77.80
2019-03-01T02:59:03.273Z,77.80
2019-03-01T03:00:35.527Z,77.80
2019-03-01T03:02:07.823Z,78.00
2019-03-01T03:03:40.002Z,78.70
2019-03-01T03:05:12.279Z,78.10
2019-03-01T03:06:54.893Z,78.30
2019-03-01T03:08:27.232Z,78.30
2019-03-01T03:09:59.607Z,78.60
2019-03-01T03:11:31.974Z,78.40
2019-03-01T03:13:06.565Z,78.90
2019-03-01T03:14:38.872Z,78.40
2019-03-01T03:16:11.173Z,78.60
2019-03-01T03:17:43.441Z,78.80
2019-03-01T03:19:15.691Z,78.70
2019-03-01T03:20:47.977Z,79.20
2019-03-01T03:22:20.230Z,78.50
2019-03-01T03:23:52.472Z,78.80
2019-03-01T03:25:24.755Z,79.20
2019-03-01T03:26:57.135Z,78.70
2019-03-01T03:28:29.433Z,79.40
2019-03-01T03:30:01.701Z,79.50
2019-03-01T03:31:33.979Z,78.90
2019-03-01T03:33:06.314Z,79.20
2019-03-01T03:34:38.551Z,79.40
2019-03-01T03:36:10.918Z,79.60
2019-03-01T03:37:43.165Z,79.80
2019-03-01T03:39:15.419Z,80.20
2019-03-01T03:40:47.667Z,79.70
2019-03-01T03:42:19.950Z,79.90
2019-03-01T03:43:52.083Z,79.90
2019-03-01T03:45:24.344Z,79.40
2019-03-01T03:46:56.640Z,80.00
2019-03-01T03:48:28.909Z,79.70
2019-03-01T03:50:01.145Z,79.80
2019-03-01T03:51:33.399Z,79.30
2019-03-01T03:53:05.652Z,79.60
2019-03-01T03:54:38.022Z,79.70
2019-03-01T03:56:10.379Z,79.90
2019-03-01T03:57:42.594Z,80.00
2019-03-01T03:59:14.890Z,80.00
2019-03-01T04:00:47.308Z,80.20
2019-03-01T04:02:19.613Z,80.00
2019-03-01T04:03:51.882Z,79.70
2019-03-01T04:05:24.174Z,80.00
2019-03-01T04:06:56.473Z,80.20
2019-03-01T04:08:28.961Z,80.20
2019-03-01T04:10:01.270Z,80.40
2019-03-01T04:11:33.502Z,80.10
2019-03-01T04:13:05.865Z,79.90
2019-03-01T04:14:37.986Z,80.30
2019-03-01T04:16:10.324Z,80.30
2019-03-01T04:17:42.590Z,79.80
2019-03-01T04:19:14.847Z,80.00
2019-03-01T04:20:47.161Z,79.90
2019-03-01T04:22:19.569Z,79.70
2019-03-01T04:23:51.881Z,79.90
2019-03-01T04:25:24.159Z,79.80
2019-03-01T04:26:56.451Z,79.80
2019-03-01T04:28:28.732Z,79.70
2019-03-01T04:30:00.809Z,79.60
2019-03-01T04:31:33.053Z,79.80
2019-03-01T04:33:05.231Z,80.00
2019-03-01T04:34:37.507Z,79.80
2019-03-01T04:36:09.612Z,80.90
2019-03-01T04:37:41.747Z,80.40
2019-03-01T04:39:14.023Z,80.00
2019-03-01T04:40:46.288Z,80.00
2019-03-01T04:42:18.567Z,80.20
2019-03-01T04:43:50.813Z,80.80
2019-03-01T04:45:23.077Z,80.60
2019-03-01T04:46:55.317Z,80.40
2019-03-01T04:48:27.611Z,80.10
2019-03-01T04:50:00.365Z,80.50
2019-03-01T04:51:39.911Z,80.30
2019-03-01T04:53:06.814Z,80.30
2019-03-01T04:54:39.142Z,80.90
2019-03-01T04:56:11.393Z,80.50
2019-03-01T04:57:43.682Z,80.30
2019-03-01T04:59:15.943Z,80.60
2019-03-01T05:00:48.186Z,80.80
2019-03-01T05:02:20.435Z,80.70
2019-03-01T05:03:52.711Z,80.80
2019-03-01T05:05:25.463Z,81.30
2019-03-01T05:06:57.692Z,81.10
2019-03-01T05:08:29.955Z,81.50
2019-03-01T05:10:02.264Z,81.00
2019-03-01T05:11:34.559Z,81.10
2019-03-01T05:13:06.819Z,81.40
2019-03-01T05:14:38.915Z,82.20
2019-03-01T05:16:11.125Z,81.30
2019-03-01T05:17:43.399Z,81.50
2019-03-01T05:19:15.648Z,81.60
2019-03-01T05:20:47.947Z,82.80
2019-03-01T05:22:20.185Z,82.30
2019-03-01T05:23:52.460Z,82.50
2019-03-01T05:25:24.648Z,83.40
2019-03-01T05:26:56.913Z,82.80
2019-03-01T05:28:29.188Z,82.10
2019-03-01T05:30:01.339Z,82.50
2019-03-01T05:31:33.641Z,82.50
2019-03-01T05:33:05.787Z,82.70
2019-03-01T05:34:38.076Z,82.10
2019-03-01T05:36:10.348Z,82.20
2019-03-01T05:37:42.603Z,82.40
2019-03-01T05:39:14.906Z,82.10
2019-03-01T05:40:47.160Z,82.60
2019-03-01T05:42:19.302Z,82.20
2019-03-01T05:43:51.565Z,82.10
2019-03-01T05:45:24.165Z,81.80
2019-03-01T05:46:56.461Z,81.90
2019-03-01T05:48:28.728Z,82.10
2019-03-01T05:50:00.961Z,81.90
2019-03-01T05:51:33.252Z,81.70
2019-03-01T05:53:05.457Z,81.40
2019-03-01T05:54:37.706Z,81.90
2019-03-01T05:56:09.959Z,81.60
2019-03-01T05:58:19.113Z,81.60
2019-03-01T05:59:51.454Z,81.80
2019-03-01T06:01:34.114Z,81.60
2019-03-01T06:03:23.653Z,81.90
2019-03-01T06:05:01.740Z,81.60
2019-03-01T06:06:41.637Z,81.30
2019-03-01T06:09:06.300Z,81.60
2019-03-01T06:11:15.225Z,82.20
2019-03-01T06:13:30.281Z,81.80
2019-03-01T06:15:12.669Z,82.00
2019-03-01T06:17:09.550Z,81.60
2019-03-01T06:19:23.368Z,81.30
2019-03-01T06:21:15.072Z,81.50
2019-03-01T06:23:14.041Z,81.60
2019-03-01T06:25:24.247Z,81.40
2019-03-01T06:27:22.314Z,81.50
2019-03-01T06:29:47.751Z,81.60
2019-03-01T06:32:15.898Z,81.60
2019-03-01T06:34:15.906Z,81.60
2019-03-01T06:36:19.520Z,81.70
2019-03-01T06:39:03.150Z,81.80
2019-03-01T06:41:23.911Z,81.80
2019-03-01T06:43:14.578Z,81.60
2019-03-01T06:45:17.478Z,81.40
2019-03-01T06:47:25.167Z,81.80
2019-03-01T06:49:31.948Z,81.80
2019-03-01T06:51:15.574Z,82.00
2019-03-01T06:52:47.765Z,81.90
2019-03-01T06:54:19.996Z,81.90
2019-03-01T06:55:58.061Z,82.00
2019-03-01T06:57:30.218Z,81.80
2019-03-01T06:59:04.463Z,82.00
2019-03-01T07:00:49.798Z,82.00
2019-03-01T07:02:21.251Z,81.70
2019-03-01T07:04:06.776Z,81.90
2019-03-01T07:05:39.062Z,81.60
2019-03-01T07:07:11.373Z,81.60
2019-03-01T07:08:43.610Z,81.60
2019-03-01T07:10:15.898Z,81.80
2019-03-01T07:11:48.102Z,81.90
2019-03-01T07:13:20.385Z,81.50
2019-03-01T07:14:52.647Z,81.50
2019-03-01T07:16:24.908Z,81.80
2019-03-01T07:17:57.173Z,81.60
2019-03-01T07:19:30.252Z,82.00
2019-03-01T07:21:02.408Z,81.60
2019-03-01T07:22:34.506Z,81.90
2019-03-01T07:24:06.745Z,81.60
2019-03-01T07:25:38.991Z,81.80
2019-03-01T07:27:12.397Z,81.30
2019-03-01T07:28:44.767Z,81.30
2019-03-01T07:30:17.092Z,81.70
2019-03-01T07:31:49.308Z,81.30
2019-03-01T07:33:21.610Z,81.20
2019-03-01T07:34:53.907Z,81.40
2019-03-01T07:36:26.148Z,82.10
2019-03-01T07:37:58.396Z,81.30
2019-03-01T07:39:30.608Z,81.30
2019-03-01T07:41:02.964Z,81.30
2019-03-01T07:42:35.217Z,81.10
2019-03-01T07:44:07.772Z,81.00
2019-03-01T07:45:42.608Z,80.80
2019-03-01T07:47:14.881Z,80.60
2019-03-01T07:48:47.146Z,80.70
2019-03-01T07:50:19.422Z,80.30
2019-03-01T07:51:51.738Z,80.30
2019-03-01T07:53:24.152Z,80.40
2019-03-01T07:54:56.455Z,80.50
2019-03-01T07:56:28.711Z,80.70
2019-03-01T07:58:01.046Z,80.50
2019-03-01T07:59:37.946Z,80.40
2019-03-01T08:01:07.561Z,80.20
2019-03-01T08:02:40.790Z,80.70
2019-03-01T08:04:13.135Z,81.10
2019-03-01T08:05:45.409Z,80.30
2019-03-01T08:07:20.533Z,80.30
2019-03-01T08:08:51.762Z,80.30
2019-03-01T08:10:24.522Z,80.30
2019-03-01T08:11:56.709Z,79.90
2019-03-01T08:13:29.025Z,80.00
2019-03-01T08:15:35.087Z,79.90
2019-03-01T08:20:18.474Z,79.40
2019-03-01T08:21:50.699Z,79.40
2019-03-01T08:23:23.256Z,79.60
2019-03-01T08:24:55.575Z,79.50
2019-03-01T08:26:30.805Z,79.70
2019-03-01T08:28:02.519Z,79.40
2019-03-01T08:29:34.917Z,80.00
2019-03-01T08:31:07.235Z,80.20
2019-03-01T08:32:39.482Z,79.80
2019-03-01T08:34:14.430Z,79.40
2019-03-01T08:35:46.381Z,79.70
2019-03-01T08:37:18.612Z,79.70
2019-03-01T08:38:50.869Z,79.10
2019-03-01T08:40:23.138Z,78.90
2019-03-01T08:42:00.284Z,78.50
2019-03-01T08:43:29.687Z,78.30
2019-03-01T08:45:02.800Z,78.10
2019-03-01T08:46:35.393Z,78.10
2019-03-01T08:48:07.717Z,77.70
2019-03-01T08:49:40.011Z,77.80
2019-03-01T08:51:12.277Z,77.90
2019-03-01T08:52:44.538Z,77.80
2019-03-01T08:54:16.884Z,77.50
2019-03-01T08:55:49.210Z,77.90
2019-03-01T08:57:22.710Z,77.60
2019-03-01T08:58:55.741Z,77.50
2019-03-01T09:00:29.397Z,77.30
2019-03-01T09:02:01.738Z,77.50
2019-03-01T09:03:38.412Z,77.40
2019-03-01T09:05:10.853Z,77.50
2019-03-01T09:06:45.034Z,77.30
2019-03-01T09:08:19.290Z,77.20
2019-03-01T09:09:53.695Z,77.30
2019-03-01T09:11:25.695Z,77.10
2019-03-01T09:12:58.545Z,77.00
2019-03-01T09:14:30.818Z,77.00
2019-03-01T09:16:03.393Z,76.90
2019-03-01T09:17:35.821Z,76.40
2019-03-01T09:19:08.103Z,76.30
2019-03-01T09:20:40.190Z,76.10
2019-03-01T09:22:12.476Z,76.00
2019-03-01T09:23:48.041Z,76.10
2019-03-01T09:25:18.592Z,75.70
2019-03-01T09:26:51.678Z,75.90
2019-03-01T09:28:24.897Z,76.40
2019-03-01T09:29:59.424Z,75.70
2019-03-01T09:31:31.284Z,75.40
2019-03-01T09:33:04.506Z,75.20
2019-03-01T09:34:36.913Z,75.10
2019-03-01T09:36:14.427Z,75.30
2019-03-01T09:37:47.155Z,75.00
2019-03-01T09:39:19.468Z,74.40
2019-03-01T09:40:51.704Z,74.20
2019-03-01T09:42:24.078Z,74.20
2019-03-01T09:43:56.192Z,74.30
2019-03-01T09:45:35.860Z,74.20
2019-03-01T09:47:02.663Z,74.30
2019-03-01T09:48:34.843Z,73.90
2019-03-01T09:50:07.583Z,74.10
2019-03-01T09:51:39.783Z,74.10
2019-03-01T09:53:12.027Z,73.80
2019-03-01T09:54:44.297Z,74.10
2019-03-01T09:56:16.539Z,75.00
2019-03-01T09:57:48.806Z,73.90
2019-03-01T09:59:20.990Z,73.90
2019-03-01T10:00:57.777Z,73.90
2019-03-01T10:02:30.014Z,73.80
2019-03-01T10:04:02.282Z,73.80
2019-03-01T10:05:34.530Z,73.80
2019-03-01T10:07:06.807Z,73.80
2019-03-01T10:08:38.947Z,74.30
2019-03-01T10:10:12.157Z,73.90
2019-03-01T10:11:44.413Z,74.30
2019-03-01T10:13:16.911Z,74.10
2019-03-01T10:14:49.244Z,74.10
2019-03-01T10:16:21.497Z,74.10
2019-03-01T10:17:53.767Z,74.10
2019-03-01T10:19:26.116Z,74.00
2019-03-01T10:20:58.398Z,74.20
2019-03-01T10:22:30.676Z,74.20
2019-03-01T10:24:03.361Z,74.20
2019-03-01T10:25:35.581Z,74.30
2019-03-01T10:27:07.749Z,74.00
2019-03-01T10:28:39.984Z,74.00
2019-03-01T10:30:17.090Z,74.00
2019-03-01T10:31:49.431Z,73.90
2019-03-01T10:33:21.619Z,73.90
2019-03-01T10:34:53.877Z,73.90
2019-03-01T10:36:26.155Z,73.80
2019-03-01T10:37:58.265Z,73.60
2019-03-01T10:39:30.692Z,74.00
2019-03-01T10:41:03.193Z,74.40
2019-03-01T10:42:35.403Z,73.80
2019-03-01T10:44:07.560Z,74.20
2019-03-01T10:45:40.008Z,73.80
2019-03-01T10:47:12.286Z,73.80
2019-03-01T10:48:44.431Z,73.80
2019-03-01T10:50:18.826Z,73.40
2019-03-01T10:51:51.148Z,73.40
2019-03-01T10:53:23.338Z,73.50
2019-03-01T10:54:55.645Z,73.40
2019-03-01T10:56:27.931Z,74.40
2019-03-01T10:58:00.175Z,73.40
2019-03-01T10:59:32.415Z,72.80
2019-03-01T11:01:04.826Z,72.70
2019-03-01T11:02:37.103Z,73.10
2019-03-01T11:04:09.446Z,72.60
2019-03-01T11:05:41.837Z,72.80
2019-03-01T11:07:14.196Z,72.60
2019-03-01T11:08:46.585Z,72.60
2019-03-01T11:10:21.137Z,72.60
2019-03-01T11:11:53.447Z,72.80
2019-03-01T11:13:25.793Z,72.90
2019-03-01T11:14:58.023Z,73.00
2019-03-01T11:16:30.312Z,72.90
2019-03-01T11:18:02.698Z,73.20
2019-03-01T11:19:35.037Z,73.20
2019-03-01T11:21:07.311Z,73.20
2019-03-01T11:22:39.512Z,73.20
2019-03-01T11:24:11.795Z,73.10
2019-03-01T11:25:43.924Z,72.80
2019-03-01T11:27:16.197Z,73.00
2019-03-01T11:28:48.499Z,73.10
2019-03-01T11:30:22.521Z,72.80
2019-03-01T11:31:54.779Z,72.80
2019-03-01T11:33:27.076Z,72.90
2019-03-01T11:34:59.406Z,72.40
2019-03-01T11:36:31.825Z,72.40
2019-03-01T11:38:04.007Z,72.60
2019-03-01T11:39:36.280Z,72.60
2019-03-01T11:41:08.508Z,72.30
2019-03-01T11:42:40.745Z,72.30
2019-03-01T11:44:13.055Z,72.30
2019-03-01T11:45:45.329Z,72.50
2019-03-01T11:47:17.606Z,72.20
2019-03-01T11:48:49.864Z,72.10
2019-03-01T11:50:22.297Z,71.90
2019-03-01T11:51:54.431Z,72.20
2019-03-01T11:53:26.674Z,71.60
2019-03-01T11:54:59.087Z,72.10
2019-03-01T11:56:31.853Z,71.60
2019-03-01T11:58:04.457Z,71.50
2019-03-01T11:59:36.784Z,71.50
2019-03-01T12:01:16.912Z,71.30
2019-03-01T12:02:43.158Z,71.40
2019-03-01T12:04:15.492Z,71.30
2019-03-01T12:05:47.775Z,71.60
2019-03-01T12:07:20.071Z,71.80
2019-03-01T12:08:52.297Z,71.90
2019-03-01T12:10:25.195Z,71.90
2019-03-01T12:11:57.934Z,72.10
2019-03-01T12:13:30.170Z,72.00
2019-03-01T12:15:02.439Z,71.50
2019-03-01T12:16:34.793Z,71.30
2019-03-01T12:18:07.030Z,71.10
2019-03-01T12:19:39.332Z,70.80
2019-03-01T12:21:11.624Z,70.70
2019-03-01T12:22:43.852Z,70.80
2019-03-01T12:24:16.121Z,70.70
2019-03-01T12:25:48.383Z,70.20
2019-03-01T12:27:20.641Z,70.20
2019-03-01T12:28:52.877Z,70.10
2019-03-01T12:30:25.250Z,70.00
2019-03-01T12:31:57.528Z,69.90
2019-03-01T12:33:29.845Z,69.80
2019-03-01T12:35:02.078Z,70.90
2019-03-01T12:36:34.321Z,70.20
2019-03-01T12:38:06.585Z,70.50
2019-03-01T12:39:38.889Z,70.60
2019-03-01T12:41:11.129Z,70.80
2019-03-01T12:42:43.312Z,70.80
2019-03-01T12:44:15.617Z,70.90
2019-03-01T12:45:47.860Z,70.60
2019-03-01T12:47:20.103Z,70.60
2019-03-01T12:48:52.499Z,70.50
2019-03-01T12:50:24.730Z,70.10
2019-03-01T12:51:56.962Z,70.50
2019-03-01T12:53:29.238Z,70.10
2019-03-01T12:55:01.616Z,70.10
2019-03-01T12:56:33.917Z,70.10
2019-03-01T12:58:06.086Z,70.20
2019-03-01T12:59:38.344Z,70.40
2019-03-01T13:01:10.599Z,70.50
2019-03-01T13:02:42.839Z,70.50
2019-03-01T13:04:15.608Z,70.40
2019-03-01T13:05:50.023Z,70.50
2019-03-01T13:07:22.380Z,70.60
2019-03-01T13:08:54.664Z,70.60
2019-03-01T13:10:27.634Z,70.70
2019-03-01T13:11:59.778Z,70.70
2019-03-01T13:13:34.614Z,71.00
2019-03-01T13:15:07.345Z,71.10
2019-03-01T13:16:39.654Z,71.50
2019-03-01T13:18:15.742Z,71.40
2019-03-01T13:19:46.142Z,71.50
2019-03-01T13:21:18.331Z,71.60
2019-03-01T13:22:50.575Z,71.90
2019-03-01T13:24:22.851Z,72.10
2019-03-01T13:25:55.182Z,72.10
2019-03-01T13:27:27.475Z,72.50
2019-03-01T13:28:59.809Z,72.30
2019-03-01T13:30:32.658Z,72.30
2019-03-01T13:32:06.300Z,72.70
2019-03-01T13:33:38.583Z,72.50
2019-03-01T13:35:12.527Z,73.40
2019-03-01T13:36:44.772Z,73.40
2019-03-01T13:38:17.063Z,72.30
2019-03-01T13:39:49.579Z,72.10
2019-03-01T13:41:21.913Z,72.10
2019-03-01T13:42:54.189Z,72.10
2019-03-01T13:44:26.512Z,72.30
2019-03-01T13:46:00.256Z,72.20
2019-03-01T13:47:32.704Z,72.50
2019-03-01T13:49:05.006Z,72.60
2019-03-01T13:50:38.293Z,72.90
2019-03-01T13:52:11.455Z,73.10
2019-03-01T13:53:48.900Z,73.10
2019-03-01T13:55:18.638Z,73.50
2019-03-01T13:56:52.234Z,73.60
2019-03-01T13:58:27.678Z,74.30
2019-03-01T13:59:58.648Z,74.50
2019-03-01T14:01:30.982Z,74.20
2019-03-01T14:03:03.439Z,74.20
2019-03-01T14:04:36.628Z,74.20
2019-03-01T14:06:09.933Z,74.60
2019-03-01T14:07:42.168Z,74.60
2019-03-01T14:09:14.399Z,74.60
2019-03-01T14:10:46.664Z,74.60
2019-03-01T14:12:19.052Z,74.20
2019-03-01T14:13:51.912Z,74.60
2019-03-01T14:15:24.248Z,74.90
2019-03-01T14:16:56.534Z,74.80
2019-03-01T14:18:28.844Z,74.60
2019-03-01T14:20:01.148Z,74.30
2019-03-01T14:21:33.929Z,74.60
2019-03-01T14:23:06.346Z,74.20
2019-03-01T14:24:38.606Z,74.30
2019-03-01T14:26:10.808Z,74.40
2019-03-01T14:27:43.104Z,74.60
2019-03-01T14:29:16.023Z,74.70
2019-03-01T14:30:49.205Z,74.90
2019-03-01T14:32:22.845Z,74.30
2019-03-01T14:33:55.233Z,74.30
2019-03-01T14:35:27.742Z,74.40
2019-03-01T14:36:59.985Z,74.70
2019-03-01T14:38:32.399Z,74.60
2019-03-01T14:40:06.600Z,75.00
2019-03-01T14:41:39.001Z,74.70
2019-03-01T14:43:12.380Z,74.60
2019-03-01T14:44:45.097Z,74.70
2019-03-01T14:46:20.436Z,74.70
2019-03-01T14:47:51.842Z,74.90
2019-03-01T14:49:24.004Z,74.40
2019-03-01T14:50:56.237Z,74.40
2019-03-01T14:52:28.488Z,74.80
2019-03-01T14:54:00.812Z,75.30
2019-03-01T14:55:36.253Z,74.60
2019-03-01T14:57:17.625Z,74.40
2019-03-01T14:59:00.596Z,74.50
2019-03-01T15:00:49.625Z,74.40
2019-03-01T15:02:33.520Z,74.60
2019-03-01T15:04:05.873Z,74.60
2019-03-01T15:05:38.753Z,74.40
2019-03-01T15:07:12.389Z,74.40
2019-03-01T15:08:47.710Z,74.50
2019-03-01T15:10:20.178Z,74.60
2019-03-01T15:11:52.490Z,74.60
2019-03-01T15:13:24.759Z,74.30
2019-03-01T15:14:57.058Z,74.40
2019-03-01T15:16:29.294Z,74.40
2019-03-01T15:18:01.556Z,74.30
2019-03-01T15:19:33.992Z,74.50
2019-03-01T15:21:07.382Z,74.50
2019-03-01T15:22:39.664Z,74.50
2019-03-01T15:24:11.899Z,74.30
2019-03-01T15:25:47.514Z,74.30
2019-03-01T15:27:18.569Z,74.30
2019-03-01T15:28:55.468Z,74.30
2019-03-01T15:30:28.068Z,74.20
2019-03-01T15:32:00.405Z,74.00
2019-03-01T15:33:32.861Z,73.60
2019-03-01T15:35:05.286Z,73.30
2019-03-01T15:36:37.553Z,73.30
2019-03-01T15:38:10.903Z,73.30
2019-03-01T15:39:43.322Z,73.30
2019-03-01T15:41:15.604Z,73.30
2019-03-01T15:42:47.993Z,73.30
2019-03-01T15:44:20.228Z,73.60
2019-03-01T15:45:52.510Z,73.30
2019-03-01T15:47:26.656Z,73.30
2019-03-01T15:48:59.046Z,73.20
2019-03-01T15:50:31.827Z,73.70
2019-03-01T15:52:04.134Z,73.10
2019-03-01T15:53:36.377Z,73.40
2019-03-01T15:55:11.827Z,73.20
2019-03-01T15:56:43.814Z,73.40
2019-03-01T15:58:16.292Z,73.10
2019-03-01T15:59:48.916Z,73.20
2019-03-01T16:01:24.177Z,72.90
2019-03-01T16:02:56.552Z,73.00
2019-03-01T16:04:30.386Z,73.10
2019-03-01T16:06:03.038Z,73.00
2019-03-01T16:07:35.343Z,72.80
2019-03-01T16:09:15.007Z,72.80
2019-03-01T16:10:47.355Z,73.10
2019-03-01T16:12:19.642Z,73.00
2019-03-01T16:13:51.809Z,72.90
2019-03-01T16:15:24.161Z,72.80
2019-03-01T16:16:56.394Z,73.00
2019-03-01T16:18:28.510Z,73.90
2019-03-01T16:20:00.756Z,73.30
2019-03-01T16:21:33.048Z,73.00
2019-03-01T16:23:05.162Z,72.80
2019-03-01T16:24:37.416Z,73.30
2019-03-01T16:26:09.573Z,73.10
2019-03-01T16:27:41.836Z,73.40
2019-03-01T16:29:14.128Z,73.20
2019-03-01T16:30:49.658Z,73.30
2019-03-01T16:32:20.669Z,73.30
2019-03-01T16:33:52.930Z,73.50
2019-03-01T16:35:25.507Z,73.40
2019-03-01T16:36:58.475Z,73.40
2019-03-01T16:38:40.410Z,73.20
2019-03-01T16:40:07.157Z,73.00
2019-03-01T16:41:39.712Z,73.10
2019-03-01T16:43:13.493Z,73.30
2019-03-01T16:44:45.744Z,73.10
2019-03-01T16:46:18.010Z,73.10
2019-03-01T16:47:50.279Z,73.10
2019-03-01T16:49:23.522Z,73.00
2019-03-01T16:50:56.701Z,72.90
2019-03-01T16:52:30.211Z,73.10
2019-03-01T16:54:03.228Z,73.10
2019-03-01T16:55:36.177Z,73.30
2019-03-01T16:57:08.499Z,73.30
2019-03-01T16:58:42.691Z,73.10
2019-03-01T17:00:18.143Z,73.10
2019-03-01T17:01:49.752Z,73.40
2019-03-01T17:03:22.052Z,73.20
2019-03-01T17:04:54.204Z,73.10
2019-03-01T17:06:26.335Z,73.20
2019-03-01T17:07:59.816Z,73.20
2019-03-01T17:09:32.727Z,73.40
2019-03-01T17:11:05.928Z,73.40
2019-03-01T17:12:38.771Z,73.40
2019-03-01T17:14:11.011Z,73.50
2019-03-01T17:15:45.574Z,73.50
2019-03-01T17:17:17.471Z,73.80
2019-03-01T17:18:49.715Z,73.60
2019-03-01T17:20:21.993Z,73.40
2019-03-01T17:21:54.223Z,73.80
2019-03-01T17:23:26.495Z,73.50
2019-03-01T17:24:58.788Z,73.80
2019-03-01T17:26:31.077Z,74.10
2019-03-01T17:28:03.525Z,74.00
2019-03-01T17:29:38.968Z,75.00
2019-03-01T17:31:09.842Z,74.00
2019-03-01T17:32:42.122Z,74.00
2019-03-01T17:34:14.364Z,74.10
2019-03-01T17:35:46.640Z,74.20
2019-03-01T17:37:18.946Z,74.20
2019-03-01T17:38:51.266Z,74.10
2019-03-01T17:40:23.569Z,74.10
2019-03-01T17:41:55.808Z,74.30
2019-03-01T17:43:29.673Z,74.10
2019-03-01T17:45:02.308Z,74.40
2019-03-01T17:46:34.573Z,74.50
2019-03-01T17:48:06.975Z,74.60
2019-03-01T17:49:39.253Z,74.40
2019-03-01T17:51:14.206Z,74.70
2019-03-01T17:52:53.149Z,74.70
2019-03-01T17:54:25.501Z,74.80
2019-03-01T17:55:57.739Z,75.70
2019-03-01T17:57:32.940Z,75.00
2019-03-01T17:59:04.465Z,75.10
2019-03-01T18:00:36.955Z,75.10
2019-03-01T18:02:12.075Z,75.20
2019-03-01T18:03:43.395Z,75.20
2019-03-01T18:05:15.600Z,75.10
2019-03-01T18:06:48.683Z,75.20
2019-03-01T18:08:22.073Z,75.20
2019-03-01T18:09:55.332Z,75.20
2019-03-01T18:11:28.327Z,75.10
2019-03-01T18:13:00.605Z,75.10
2019-03-01T18:14:33.857Z,75.00
2019-03-01T18:16:07.004Z,75.20
2019-03-01T18:17:39.242Z,75.20
2019-03-01T18:19:11.411Z,75.10
2019-03-01T18:20:43.671Z,75.10
2019-03-01T18:22:15.956Z,75.10
2019-03-01T18:23:48.229Z,75.10
2019-03-01T18:25:22.894Z,74.80
2019-03-01T18:26:54.794Z,75.00
2019-03-01T18:28:28.363Z,75.20
2019-03-01T18:30:01.215Z,75.00
2019-03-01T18:31:35.401Z,75.10
2019-03-01T18:33:07.741Z,75.80
2019-03-01T18:34:40.093Z,75.30
2019-03-01T18:36:12.350Z,75.20
2019-03-01T18:37:44.764Z,75.10
2019-03-01T18:39:17.111Z,75.20
2019-03-01T18:40:51.736Z,75.40
2019-03-01T18:42:23.626Z,75.40
2019-03-01T18:43:55.730Z,75.40
2019-03-01T18:45:28.033Z,75.40
2019-03-01T18:47:00.295Z,75.70
2019-03-01T18:48:33.653Z,75.80
2019-03-01T18:50:10.029Z,76.40
2019-03-01T18:51:43.264Z,75.70
2019-03-01T18:53:15.884Z,75.70
2019-03-01T18:54:48.209Z,75.80
2019-03-01T18:56:20.533Z,75.90
2019-03-01T18:57:52.787Z,75.80
2019-03-01T18:59:25.749Z,75.90
2019-03-01T19:00:58.031Z,75.80
2019-03-01T19:02:30.246Z,76.20
2019-03-01T19:04:02.450Z,76.00
2019-03-01T19:05:36.715Z,76.00
2019-03-01T19:07:09.080Z,76.10
2019-03-01T19:08:41.403Z,76.50
2019-03-01T19:10:13.734Z,76.50
2019-03-01T19:11:46.754Z,76.50
2019-03-01T19:13:20.794Z,76.50
2019-03-01T19:14:53.591Z,76.40
2019-03-01T19:16:28.626Z,76.30
2019-03-01T19:18:00.148Z,75.70
2019-03-01T19:19:32.318Z,75.80
2019-03-01T19:21:04.820Z,75.40
2019-03-01T19:22:37.104Z,75.20
2019-03-01T19:24:09.264Z,75.30
2019-03-01T19:25:41.531Z,75.40
2019-03-01T19:27:15.571Z,75.50
2019-03-01T19:28:47.903Z,75.20
2019-03-01T19:30:20.699Z,75.70
2019-03-01T19:31:52.903Z,75.50
2019-03-01T19:33:25.157Z,75.70
2019-03-01T19:34:58.965Z,75.70
2019-03-01T19:36:31.244Z,75.60
2019-03-01T19:38:03.498Z,75.50
2019-03-01T19:39:36.151Z,75.80
2019-03-01T19:41:09.962Z,75.80
2019-03-01T19:42:42.392Z,75.70
2019-03-01T19:44:14.576Z,76.50
2019-03-01T19:45:46.698Z,75.60
2019-03-01T19:47:18.841Z,75.70
2019-03-01T19:48:51.145Z,75.60
2019-03-01T19:50:25.001Z,75.60
2019-03-01T19:51:57.554Z,75.50
2019-03-01T19:53:29.901Z,75.30
2019-03-01T19:55:02.207Z,75.40
2019-03-01T19:56:34.476Z,75.60
2019-03-01T19:58:08.772Z,75.50
2019-03-01T19:59:41.289Z,75.60
2019-03-01T20:01:14.672Z,75.40
2019-03-01T20:02:47.428Z,75.60
2019-03-01T20:04:21.104Z,75.80
2019-03-01T20:05:53.981Z,75.90
2019-03-01T20:07:26.225Z,76.20
2019-03-01T20:09:01.665Z,76.90
2019-03-01T20:10:32.663Z,76.20
2019-03-01T20:12:04.939Z,75.90
2019-03-01T20:13:37.238Z,76.00
2019-03-01T20:15:12.111Z,76.10
2019-03-01T20:16:44.292Z,77.00
2019-03-01T20:18:16.504Z,76.10
2019-03-01T20:19:48.791Z,76.20
2019-03-01T20:21:20.905Z,76.40